»·PEaware :: N41598 KGUC-KAPA

N41598 :: KGUC-KAPA

FLIGHT INFORMATION

Flight Status: Arrived
Operator: Privately registered:
United States
More flights under this callsign
Pilot: Alex C. (14758)
Aircraft: BOMBARDIER BD-100 CHALLENGER 300
(CL30)
More flights by this aircraft type
Origin: KGUC Gunnison Co
United States
Destination: KAPA Centennial
United States
More flights between these airports :: More routes between these airports
Route: ZOMBZ ZOMBZ1
File this flight plan on PilotEdge
Remarks:
Altitude:
(Current/Filed)
21,000ft
Speed:
(Current/Filed)
430kts
Departed: 26-Nov-18 11:08 PM
Arrived: 26-Nov-18 11:51 PM
Distance/Time
Traveled:
115nm/0:43
Distance/Time
To Go:
Arrived

Flight Plot

Page will automatically refresh every two minutes.


Map Options




Map Legend


Flown Route
Filed Route
Departure Airport
Arrival Airport
Navaid (VOR, NDB)
Fix

Horizontal Profiles

Position Reports

Time Latitude Longitude Heading Altitude Ground
Speed
26-Nov-18 23:01 38.535090 -106.941232 253 7685ft 0kts
26-Nov-18 23:02 38.535090 -106.941232 253 7685ft 0kts
26-Nov-18 23:03 38.535090 -106.941232 253 7685ft 0kts
26-Nov-18 23:04 38.535090 -106.941232 253 7685ft 0kts
26-Nov-18 23:05 38.535090 -106.941232 253 7685ft 0kts
26-Nov-18 23:06 38.535090 -106.941232 253 7685ft 0kts
26-Nov-18 23:07 38.535090 -106.941233 253 7685ft 0kts
26-Nov-18 23:08 38.533447 -106.945179 196 7685ft 0kts
26-Nov-18 23:09 38.533447 -106.945179 197 7685ft 0kts
26-Nov-18 23:10 38.533447 -106.945179 197 7685ft 0kts
26-Nov-18 23:11 38.532840 -106.943366 73 7685ft 46kts
26-Nov-18 23:12 38.539771 -106.905663 83 8439ft 217kts
26-Nov-18 23:13 38.530634 -106.841145 141 12004ft 253kts
26-Nov-18 23:14 38.474016 -106.858276 245 13721ft 320kts
26-Nov-18 23:15 38.472668 -106.944635 300 17320ft 315kts
26-Nov-18 23:16 38.531897 -106.966534 22 20686ft 316kts
26-Nov-18 23:17 38.558838 -106.883220 86 21442ft 404kts
26-Nov-18 23:18 38.561491 -106.783843 64 21398ft 393kts
26-Nov-18 23:19 38.598096 -106.690684 56 21416ft 413kts
26-Nov-18 23:20 38.633602 -106.602438 56 21412ft 411kts
26-Nov-18 23:21 38.669013 -106.514362 56 21359ft 412kts
26-Nov-18 23:22 38.703724 -106.427832 56 21275ft 411kts
26-Nov-18 23:23 38.738904 -106.339913 57 21273ft 412kts
26-Nov-18 23:24 38.774026 -106.251844 56 21270ft 413kts
26-Nov-18 23:25 38.809674 -106.162297 57 21279ft 408kts
26-Nov-18 23:26 38.846495 -106.069490 57 21270ft 409kts
26-Nov-18 23:27 38.883246 -105.976574 57 21270ft 409kts
26-Nov-18 23:28 38.919610 -105.884353 57 21271ft 409kts
26-Nov-18 23:29 38.954620 -105.795162 56 21264ft 380kts
26-Nov-18 23:30 38.986148 -105.714675 56 21024ft 353kts
26-Nov-18 23:31 39.016483 -105.637137 55 20028ft 333kts
26-Nov-18 23:32 39.043433 -105.568141 56 18722ft 326kts
26-Nov-18 23:33 39.070191 -105.499418 56 17574ft 320kts
26-Nov-18 23:34 39.096213 -105.431332 63 16344ft 321kts
26-Nov-18 23:35 39.121962 -105.361814 55 15080ft 311kts
26-Nov-18 23:36 39.149823 -105.291751 56 14883ft 311kts
26-Nov-18 23:37 39.177900 -105.220413 56 14883ft 308kts
26-Nov-18 23:38 39.187399 -105.140704 81 14207ft 319kts
26-Nov-18 23:39 39.188599 -105.061402 93 13373ft 319kts
26-Nov-18 23:40 39.178586 -104.990668 95 12846ft 278kts
26-Nov-18 23:41 39.181066 -104.926357 66 11733ft 252kts
26-Nov-18 23:42 39.197711 -104.868142 65 10995ft 244kts
26-Nov-18 23:43 39.236441 -104.846503 1 10147ft 232kts
26-Nov-18 23:44 39.281261 -104.843819 359 9179ft 231kts
26-Nov-18 23:45 39.322423 -104.842699 359 8988ft 204kts
26-Nov-18 23:46 39.359603 -104.841108 357 9029ft 201kts
26-Nov-18 23:47 39.397498 -104.842909 355 8949ft 185kts
26-Nov-18 23:48 39.434184 -104.844651 355 8317ft 179kts
26-Nov-18 23:49 39.465135 -104.846025 355 7708ft 147kts
26-Nov-18 23:50 39.492153 -104.847293 355 7187ft 143kts
26-Nov-18 23:51 39.517601 -104.848440 354 6688ft 129kts
26-Nov-18 23:52 39.541067 -104.849524 354 6239ft 129kts
26-Nov-18 23:53 39.564353 -104.850693 356 5889ft 93kts
26-Nov-18 23:54 39.573151 -104.850052 27 5889ft 8kts

Navigation Log

Ident Type
Flight plan parsing failed, navigation log unavailable